Time;durP1;ratioP1;P1;durP2;ratioP2;P2;SDS_P1;SDS_P2;PMS_P1;PMS_P2;Temp;Humidity;BMP_temperature;BMP_pressure;BME280_temperature;BME280_humidity;BME280_pressure;Samples;Min_cycle;Max_cycle;Signal;HPM_P1;HPM_P2
2023/03/08 00:01:18;;;;;;;20.17;10.67;;;12.80;66.60;;;;;;4948215;28;20221;-79
2023/03/08 00:03:46;;;;;;;22.53;11.63;;;12.70;66.60;;;;;;4946154;28;20260;-79
2023/03/08 00:06:16;;;;;;;27.13;11.93;;;12.70;66.60;;;;;;4945770;28;20710;-80
2023/03/08 00:08:47;;;;;;;23.93;11.43;;;12.60;66.60;;;;;;4947385;28;20203;-78
2023/03/08 00:11:17;;;;;;;29.00;12.00;;;12.50;66.60;;;;;;4948235;28;20229;-79
2023/03/08 00:13:45;;;;;;;22.53;11.23;;;12.50;66.70;;;;;;4944531;28;20230;-80
2023/03/08 00:16:14;;;;;;;20.80;10.43;;;12.40;66.80;;;;;;4942729;28;20213;-79
2023/03/08 00:18:42;;;;;;;22.53;10.97;;;12.40;66.90;;;;;;4940788;28;20201;-77
2023/03/08 00:21:13;;;;;;;25.83;11.47;;;12.30;66.90;;;;;;4944599;28;20198;-76
2023/03/08 00:23:42;;;;;;;20.17;11.10;;;12.30;66.90;;;;;;4944418;28;20201;-77
2023/03/08 00:26:11;;;;;;;26.23;11.53;;;12.20;67.00;;;;;;4949635;28;20205;-78
2023/03/08 00:28:42;;;;;;;22.63;11.10;;;12.20;67.20;;;;;;4947599;28;20206;-77
2023/03/08 00:31:12;;;;;;;22.03;11.07;;;12.10;67.20;;;;;;4954151;28;20708;-78
2023/03/08 00:33:41;;;;;;;20.70;11.10;;;12.00;67.20;;;;;;4950949;28;20414;-77
2023/03/08 00:36:14;;;;;;;23.13;11.17;;;12.00;67.40;;;;;;4951214;28;20617;-78
2023/03/08 00:38:42;;;;;;;22.77;11.53;;;12.00;67.50;;;;;;4949843;28;20198;-78
2023/03/08 00:41:11;;;;;;;32.13;12.93;;;11.90;67.50;;;;;;4952001;28;20210;-77
2023/03/08 00:43:42;;;;;;;21.50;11.53;;;11.90;67.70;;;;;;4947161;28;20229;-77
2023/03/08 00:46:10;;;;;;;25.57;12.30;;;11.90;67.70;;;;;;4951752;28;20209;-78
2023/03/08 00:48:39;;;;;;;22.33;12.23;;;11.80;67.70;;;;;;4952640;28;20198;-78
2023/03/08 00:51:08;;;;;;;23.50;11.50;;;11.80;67.90;;;;;;4948324;28;20213;-78
2023/03/08 00:53:36;;;;;;;22.60;11.70;;;11.70;67.90;;;;;;4952567;28;20245;-78
2023/03/08 00:56:05;;;;;;;22.80;11.63;;;11.70;68.30;;;;;;4950784;28;20458;-79
2023/03/08 00:58:33;;;;;;;25.77;12.10;;;11.70;68.20;;;;;;4951903;28;20206;-78
2023/03/08 01:01:04;;;;;;;21.67;12.67;;;11.60;68.30;;;;;;4951602;28;20210;-78
2023/03/08 01:03:33;;;;;;;23.70;12.20;;;11.60;68.40;;;;;;4947754;28;20289;-78
2023/03/08 01:06:07;;;;;;;22.60;11.53;;;11.60;68.60;;;;;;4949774;28;20264;-78
2023/03/08 01:08:36;;;;;;;25.67;13.03;;;11.60;68.60;;;;;;4949891;28;20205;-78
2023/03/08 01:11:04;;;;;;;29.37;12.80;;;11.50;68.60;;;;;;4947900;28;20997;-78
2023/03/08 01:13:35;;;;;;;24.07;12.03;;;11.50;68.70;;;;;;4950068;28;20710;-78
2023/03/08 01:16:05;;;;;;;28.53;12.97;;;11.50;68.80;;;;;;4951421;28;20225;-78
2023/03/08 01:18:33;;;;;;;26.00;12.37;;;11.40;68.80;;;;;;4948386;28;20311;-78
2023/03/08 01:21:04;;;;;;;28.77;12.93;;;11.40;68.90;;;;;;4949043;28;20257;-78
2023/03/08 01:23:33;;;;;;;22.73;11.50;;;11.40;69.00;;;;;;4945327;28;20198;-78
2023/03/08 01:26:03;;;;;;;25.37;13.53;;;11.40;69.10;;;;;;4950027;28;20222;-78
2023/03/08 01:28:32;;;;;;;22.40;13.50;;;11.30;69.10;;;;;;4952786;28;20190;-79
2023/03/08 01:31:07;;;;;;;24.80;13.17;;;11.30;69.30;;;;;;4953070;28;20257;-79
2023/03/08 01:33:47;;;;;;;23.63;12.63;;;11.30;69.40;;;;;;4950601;28;20769;-78
2023/03/08 01:36:17;;;;;;;23.17;12.90;;;11.30;69.40;;;;;;4951815;28;20208;-79
2023/03/08 01:38:46;;;;;;;33.13;14.93;;;11.20;69.50;;;;;;4949797;28;20330;-78
2023/03/08 01:41:17;;;;;;;23.73;13.50;;;11.20;69.50;;;;;;4950245;28;20239;-78
2023/03/08 01:43:48;;;;;;;30.37;13.27;;;11.20;69.60;;;;;;4950525;28;20198;-78
2023/03/08 01:46:25;;;;;;;26.67;13.13;;;11.20;69.70;;;;;;4951913;28;20210;-78
2023/03/08 01:48:59;;;;;;;26.33;13.30;;;11.20;69.90;;;;;;4950132;28;20608;-78
2023/03/08 01:51:35;;;;;;;26.17;13.00;;;11.10;69.90;;;;;;4950399;28;20294;-78
2023/03/08 01:54:08;;;;;;;24.73;12.63;;;11.20;70.00;;;;;;4947250;28;20209;-78
2023/03/08 01:56:37;;;;;;;25.53;13.17;;;11.10;70.00;;;;;;4951611;28;20224;-78
2023/03/08 01:59:07;;;;;;;24.57;13.10;;;11.10;70.10;;;;;;4950157;28;20206;-78
2023/03/08 02:01:36;;;;;;;27.00;12.97;;;11.10;70.20;;;;;;4949538;28;20210;-79
2023/03/08 02:04:06;;;;;;;22.57;12.50;;;11.00;70.30;;;;;;4948747;28;20351;-78
2023/03/08 02:06:35;;;;;;;30.83;13.17;;;11.00;70.40;;;;;;4949607;28;20249;-79
2023/03/08 02:09:04;;;;;;;28.17;14.07;;;11.00;71.20;;;;;;4948074;28;20813;-78
2023/03/08 02:11:35;;;;;;;25.93;13.23;;;10.90;70.40;;;;;;4949061;28;20290;-79
2023/03/08 02:14:04;;;;;;;34.73;14.63;;;10.90;70.30;;;;;;4948922;28;20624;-78
2023/03/08 02:16:32;;;;;;;30.43;14.80;;;10.90;70.40;;;;;;4947478;28;20233;-77
2023/03/08 02:19:05;;;;;;;29.43;12.93;;;10.90;70.50;;;;;;4930970;28;20292;-78
2023/03/08 02:21:33;;;;;;;23.83;13.73;;;10.90;70.50;;;;;;4934888;28;20599;-78
2023/03/08 02:24:17;;;;;;;33.60;15.00;;;10.80;70.50;;;;;;4944115;28;20652;-78
2023/03/08 02:26:46;;;;;;;34.83;15.47;;;10.80;70.50;;;;;;4938985;28;20608;-79
2023/03/08 02:29:15;;;;;;;29.43;14.47;;;10.80;70.60;;;;;;4944621;28;20206;-78
2023/03/08 02:31:43;;;;;;;28.57;14.60;;;10.80;70.60;;;;;;4948876;28;20201;-78
2023/03/08 02:34:11;;;;;;;27.37;14.73;;;10.80;70.70;;;;;;4949869;28;20768;-79
2023/03/08 02:36:40;;;;;;;35.53;15.07;;;10.70;70.80;;;;;;4950237;28;20198;-79
2023/03/08 02:39:09;;;;;;;27.53;15.30;;;10.70;70.80;;;;;;4948634;28;20392;-77
2023/03/08 02:41:38;;;;;;;28.83;14.00;;;10.70;70.80;;;;;;4942523;28;20206;-77
2023/03/08 02:44:06;;;;;;;29.60;14.43;;;10.70;70.80;;;;;;4946342;28;20562;-78
2023/03/08 02:46:35;;;;;;;32.92;17.58;;;10.60;70.80;;;;;;4948199;28;21131;-78
2023/03/08 02:49:03;;;;;;;32.70;16.23;;;10.70;71.40;;;;;;4949613;28;20221;-77
2023/03/08 02:51:31;;;;;;;32.80;16.73;;;10.70;71.40;;;;;;4949564;28;20202;-78
2023/03/08 02:54:00;;;;;;;35.87;16.47;;;10.70;71.40;;;;;;4948518;28;20617;-77
2023/03/08 02:56:29;;;;;;;33.53;16.57;;;10.70;71.30;;;;;;4951607;28;20232;-77
2023/03/08 02:58:58;;;;;;;30.30;15.77;;;10.60;71.20;;;;;;4942467;28;20660;-79
2023/03/08 03:01:26;;;;;;;31.37;16.23;;;10.60;71.20;;;;;;4947086;28;20221;-77
2023/03/08 03:03:55;;;;;;;38.30;16.43;;;10.60;71.10;;;;;;4945193;28;20205;-78
2023/03/08 03:06:23;;;;;;;37.37;16.70;;;10.60;71.00;;;;;;4946179;28;20741;-77
2023/03/08 03:08:52;;;;;;;34.93;16.90;;;10.60;71.10;;;;;;4946963;28;20211;-78
2023/03/08 03:11:23;;;;;;;33.13;16.73;;;10.50;71.20;;;;;;4946961;28;20241;-77
2023/03/08 03:13:57;;;;;;;34.47;16.27;;;10.50;71.10;;;;;;4941859;28;20253;-79
2023/03/08 03:16:26;;;;;;;29.03;16.23;;;10.50;71.10;;;;;;4952323;28;20322;-79
2023/03/08 03:18:55;;;;;;;31.77;16.67;;;10.50;71.30;;;;;;4949944;28;20554;-78
2023/03/08 03:21:24;;;;;;;34.83;17.63;;;10.40;71.20;;;;;;4949799;28;22370;-78
2023/03/08 03:23:54;;;;;;;40.17;18.13;;;10.40;71.50;;;;;;4949889;28;20202;-78
2023/03/08 03:26:23;;;;;;;37.13;18.27;;;10.40;71.50;;;;;;4950256;28;20214;-77
2023/03/08 03:28:55;;;;;;;41.73;19.10;;;10.30;71.40;;;;;;4948392;28;20417;-78
2023/03/08 03:31:25;;;;;;;52.03;23.20;;;10.30;71.40;;;;;;4946431;28;20710;-79
2023/03/08 03:33:54;;;;;;;44.60;21.43;;;10.30;71.40;;;;;;4949987;28;20229;-77
2023/03/08 03:36:23;;;;;;;44.07;21.13;;;10.20;71.40;;;;;;4948734;28;20209;-78
2023/03/08 03:38:51;;;;;;;40.33;19.03;;;10.20;71.60;;;;;;4946919;28;20202;-78
2023/03/08 03:41:21;;;;;;;38.23;19.13;;;10.20;71.60;;;;;;4950555;28;20546;-77
2023/03/08 03:43:50;;;;;;;41.40;19.70;;;10.10;71.70;;;;;;4949699;28;20895;-78
2023/03/08 03:46:21;;;;;;;42.43;20.70;;;10.10;71.70;;;;;;4949309;28;20264;-78
2023/03/08 03:48:52;;;;;;;35.93;18.53;;;10.10;71.80;;;;;;4945356;28;20198;-78
2023/03/08 03:51:22;;;;;;;38.17;18.07;;;10.10;72.10;;;;;;4947043;28;21107;-78
2023/03/08 03:53:50;;;;;;;35.40;18.73;;;10.10;72.50;;;;;;4949200;28;20887;-79
2023/03/08 03:56:20;;;;;;;37.37;18.83;;;10.00;72.30;;;;;;4948240;28;20611;-77
2023/03/08 03:58:50;;;;;;;34.90;18.27;;;10.00;72.30;;;;;;4948880;28;20205;-77
2023/03/08 04:01:20;;;;;;;36.53;18.93;;;10.00;72.30;;;;;;4948238;28;20206;-78
2023/03/08 04:03:51;;;;;;;37.53;17.90;;;10.00;72.30;;;;;;4950641;28;20205;-79
2023/03/08 04:06:22;;;;;;;37.90;19.37;;;9.90;72.30;;;;;;4950744;28;20202;-79
2023/03/08 04:08:53;;;;;;;34.50;20.00;;;9.90;72.30;;;;;;4949710;28;20221;-78
2023/03/08 04:11:23;;;;;;;42.77;19.60;;;9.90;72.60;;;;;;4952132;28;20225;-79
2023/03/08 04:13:52;;;;;;;47.80;21.47;;;9.90;72.60;;;;;;4951365;28;20217;-78
2023/03/08 04:16:22;;;;;;;38.33;19.73;;;9.80;72.50;;;;;;4953620;28;20268;-78
2023/03/08 04:18:59;;;;;;;40.73;19.30;;;9.80;72.60;;;;;;4940238;28;20194;-78
2023/03/08 04:21:28;;;;;;;37.97;19.00;;;9.80;72.70;;;;;;4944408;28;20268;-78
2023/03/08 04:23:57;;;;;;;39.87;19.13;;;9.80;72.70;;;;;;4951135;28;20758;-78
2023/03/08 04:26:28;;;;;;;38.17;18.90;;;9.80;72.80;;;;;;4953900;28;20283;-78
2023/03/08 04:28:56;;;;;;;35.70;18.93;;;9.80;72.80;;;;;;4949081;28;20284;-79
2023/03/08 04:31:27;;;;;;;45.87;20.80;;;9.70;72.90;;;;;;4950566;28;20256;-79
2023/03/08 04:33:57;;;;;;;34.73;19.30;;;9.70;73.00;;;;;;4949712;28;20612;-79
2023/03/08 04:36:26;;;;;;;46.83;20.50;;;9.70;73.00;;;;;;4950881;28;20198;-79
2023/03/08 04:38:56;;;;;;;41.87;19.97;;;9.70;73.20;;;;;;4951686;28;20206;-79
2023/03/08 04:41:25;;;;;;;46.77;21.57;;;9.70;73.10;;;;;;4950680;28;20337;-78
2023/03/08 04:43:55;;;;;;;52.03;21.53;;;9.70;73.20;;;;;;4950625;28;20352;-78
2023/03/08 04:46:25;;;;;;;46.97;21.00;;;9.60;73.20;;;;;;4948335;28;20240;-78
2023/03/08 04:48:54;;;;;;;50.57;22.60;;;9.70;73.40;;;;;;4951940;28;20216;-78
2023/03/08 04:51:26;;;;;;;43.27;20.40;;;9.70;73.40;;;;;;4951063;28;20212;-79
2023/03/08 04:53:55;;;;;;;46.77;21.50;;;9.70;73.60;;;;;;4948427;28;20222;-79
2023/03/08 04:56:23;;;;;;;44.30;20.97;;;9.70;73.60;;;;;;4951955;28;20205;-79
2023/03/08 04:58:51;;;;;;;43.43;20.70;;;9.70;73.90;;;;;;4952264;28;20260;-78
2023/03/08 05:01:22;;;;;;;44.47;21.30;;;9.60;74.20;;;;;;4950951;28;20332;-78
2023/03/08 05:03:53;;;;;;;43.97;21.40;;;9.60;74.90;;;;;;4952442;28;20917;-77
2023/03/08 05:06:23;;;;;;;41.37;21.33;;;9.70;74.10;;;;;;4963384;28;20249;-78
2023/03/08 05:08:53;;;;;;;47.67;21.70;;;9.70;74.30;;;;;;4944771;28;20287;-79
2023/03/08 05:11:24;;;;;;;40.60;20.30;;;9.70;74.50;;;;;;4950062;28;20242;-78
2023/03/08 05:13:54;;;;;;;39.70;19.70;;;9.70;74.60;;;;;;4945242;28;20210;-77
2023/03/08 05:16:22;;;;;;;40.97;20.47;;;9.80;74.70;;;;;;4953989;28;20629;-77
2023/03/08 05:18:50;;;;;;;38.03;19.80;;;9.80;74.70;;;;;;4948883;28;20919;-78
2023/03/08 05:21:20;;;;;;;40.60;21.73;;;9.80;75.00;;;;;;4948539;28;20217;-79
2023/03/08 05:23:49;;;;;;;42.10;20.80;;;9.90;75.00;;;;;;4958534;28;20744;-76
2023/03/08 05:26:21;;;;;;;48.73;22.17;;;10.00;75.40;;;;;;4960157;28;20213;-76
2023/03/08 05:28:49;;;;;;;44.03;22.70;;;10.00;75.50;;;;;;4964689;28;20201;-76
2023/03/08 05:31:19;;;;;;;44.27;20.83;;;10.10;75.70;;;;;;4961742;28;20206;-76
2023/03/08 05:33:51;;;;;;;46.50;21.93;;;10.20;75.80;;;;;;4963788;28;20749;-77
2023/03/08 05:36:20;;;;;;;48.00;21.20;;;10.20;75.80;;;;;;4962179;28;20845;-75
2023/03/08 05:38:52;;;;;;;52.55;26.08;;;10.30;75.80;;;;;;4961871;28;20508;-77
2023/03/08 05:41:22;;;;;;;43.47;23.40;;;10.40;77.00;;;;;;4970848;28;20201;-77
2023/03/08 05:43:50;;;;;;;42.63;22.23;;;10.50;76.70;;;;;;4987639;28;20566;-76
2023/03/08 05:46:20;;;;;;;48.57;22.87;;;10.50;76.50;;;;;;4983906;28;20233;-76
2023/03/08 05:48:48;;;;;;;47.17;22.97;;;10.60;76.30;;;;;;4985711;28;20209;-76
2023/03/08 05:51:19;;;;;;;43.03;22.77;;;10.70;76.30;;;;;;4985250;28;20204;-76
2023/03/08 05:53:47;;;;;;;45.37;22.13;;;10.80;76.20;;;;;;4985549;28;20491;-76
2023/03/08 05:56:17;;;;;;;47.57;24.20;;;10.90;76.10;;;;;;4972806;28;20213;-77
2023/03/08 05:58:48;;;;;;;49.57;24.13;;;11.00;76.10;;;;;;4958317;28;20552;-75
2023/03/08 06:01:18;;;;;;;47.57;22.87;;;11.10;76.20;;;;;;4954186;28;20205;-78
2023/03/08 06:03:48;;;;;;;44.83;23.23;;;11.10;76.20;;;;;;4953383;28;20249;-77
2023/03/08 06:06:17;;;;;;;47.37;25.57;;;11.20;76.40;;;;;;4958647;28;20264;-78
2023/03/08 06:08:46;;;;;;;43.93;21.70;;;11.20;76.30;;;;;;4950511;28;20209;-78
2023/03/08 06:11:15;;;;;;;40.27;19.10;;;11.30;76.40;;;;;;4951810;28;20718;-77
2023/03/08 06:13:43;;;;;;;33.23;18.20;;;11.30;76.20;;;;;;4946537;28;20280;-78
2023/03/08 06:16:13;;;;;;;41.67;19.10;;;11.30;76.10;;;;;;4954057;28;20225;-75
2023/03/08 06:18:42;;;;;;;38.03;20.83;;;11.30;75.90;;;;;;4948888;28;20292;-77
2023/03/08 06:21:13;;;;;;;39.40;19.43;;;11.40;75.80;;;;;;4947330;28;21443;-75
2023/03/08 06:23:42;;;;;;;40.67;20.90;;;11.40;75.80;;;;;;4946585;28;20872;-76
2023/03/08 06:26:11;;;;;;;54.97;22.17;;;11.50;75.70;;;;;;4947935;28;20720;-76
2023/03/08 06:28:40;;;;;;;50.67;20.30;;;11.50;75.60;;;;;;4949764;28;20225;-75
2023/03/08 06:31:11;;;;;;;48.50;23.00;;;11.60;75.60;;;;;;4948519;28;20225;-75
2023/03/08 06:33:41;;;;;;;47.50;23.23;;;11.60;75.50;;;;;;4948717;28;20202;-76
2023/03/08 06:36:12;;;;;;;42.03;22.17;;;11.60;76.10;;;;;;4947071;28;20226;-77
2023/03/08 06:38:42;;;;;;;42.77;21.97;;;11.60;75.10;;;;;;4950327;28;21222;-76
2023/03/08 06:41:12;;;;;;;42.83;20.10;;;11.70;75.10;;;;;;4951588;28;20210;-77
2023/03/08 06:43:41;;;;;;;40.70;22.03;;;11.70;75.00;;;;;;4947910;28;20218;-77
2023/03/08 06:46:12;;;;;;;38.00;22.73;;;11.70;75.50;;;;;;4952204;28;20193;-76
2023/03/08 06:48:41;;;;;;;38.53;20.33;;;11.70;74.60;;;;;;4949780;28;20291;-76
2023/03/08 06:51:10;;;;;;;44.30;23.50;;;11.70;74.50;;;;;;4949535;28;20280;-76
2023/03/08 06:53:38;;;;;;;42.10;21.77;;;11.80;74.50;;;;;;4949493;28;20240;-77
2023/03/08 06:56:08;;;;;;;39.27;22.50;;;11.80;74.40;;;;;;4948428;28;20254;-78
2023/03/08 06:58:37;;;;;;;40.17;20.37;;;11.90;74.50;;;;;;4948054;28;20317;-77
2023/03/08 07:01:08;;;;;;;38.63;21.13;;;11.90;74.80;;;;;;4947910;28;20230;-77
2023/03/08 07:03:39;;;;;;;48.70;21.03;;;11.90;75.10;;;;;;4945868;28;20193;-78
2023/03/08 07:06:09;;;;;;;36.13;19.43;;;12.00;75.10;;;;;;4947175;28;20316;-76
2023/03/08 07:08:39;;;;;;;36.43;19.57;;;12.10;75.20;;;;;;4948444;28;20202;-77
2023/03/08 07:11:08;;;;;;;39.07;19.40;;;12.10;75.40;;;;;;4951487;28;20264;-76
2023/03/08 07:13:37;;;;;;;44.37;20.63;;;12.10;75.40;;;;;;4957318;28;20197;-77
2023/03/08 07:16:07;;;;;;;39.10;18.63;;;12.20;75.40;;;;;;4961660;28;20577;-77
2023/03/08 07:18:37;;;;;;;34.87;19.03;;;12.20;75.40;;;;;;4957225;28;20204;-78
2023/03/08 07:21:06;;;;;;;42.13;19.07;;;12.20;75.70;;;;;;4953210;28;20575;-75
2023/03/08 07:23:36;;;;;;;39.53;18.07;;;12.20;75.50;;;;;;4955704;28;20481;-77
2023/03/08 07:26:05;;;;;;;32.70;16.40;;;12.30;75.60;;;;;;4956577;28;20249;-77
2023/03/08 07:28:34;;;;;;;33.93;15.50;;;12.40;75.70;;;;;;4953355;28;20206;-76
2023/03/08 07:31:03;;;;;;;38.00;16.17;;;12.50;75.90;;;;;;4954747;28;20206;-77
2023/03/08 07:33:32;;;;;;;27.30;14.07;;;12.60;75.90;;;;;;4952783;28;20332;-75
2023/03/08 07:36:01;;;;;;;30.27;14.50;;;12.60;75.80;;;;;;4951765;28;20701;-76
2023/03/08 07:38:30;;;;;;;27.63;14.40;;;12.70;75.60;;;;;;4958842;28;20671;-75
2023/03/08 07:40:59;;;;;;;25.60;12.93;;;12.80;75.50;;;;;;4958490;28;20198;-77
2023/03/08 07:43:28;;;;;;;26.33;13.23;;;12.90;75.50;;;;;;4957365;28;20280;-75
2023/03/08 07:46:00;;;;;;;27.37;12.00;;;13.00;75.60;;;;;;4954055;28;20586;-75
2023/03/08 07:48:29;;;;;;;25.13;12.97;;;13.10;74.90;;;;;;4951603;28;20205;-75
2023/03/08 07:51:02;;;;;;;28.40;13.97;;;13.20;74.70;;;;;;4955340;28;20208;-75
2023/03/08 07:53:31;;;;;;;26.57;12.40;;;13.30;74.70;;;;;;4959267;28;20266;-79
2023/03/08 07:56:01;;;;;;;20.80;10.30;;;13.40;74.50;;;;;;4946153;28;20230;-78
2023/03/08 07:58:30;;;;;;;21.43;10.80;;;13.40;74.40;;;;;;4963817;28;20202;-78
2023/03/08 08:00:58;;;;;;;18.57;10.30;;;13.60;73.80;;;;;;4967454;28;20198;-78
2023/03/08 08:03:29;;;;;;;25.10;10.77;;;13.60;73.50;;;;;;4960722;28;20252;-77
2023/03/08 08:06:03;;;;;;;20.30;10.63;;;13.70;73.50;;;;;;4962869;28;20617;-77
2023/03/08 08:08:32;;;;;;;20.07;9.57;;;13.80;73.10;;;;;;4962787;28;20516;-76
2023/03/08 08:11:02;;;;;;;19.23;9.03;;;13.90;73.00;;;;;;4956775;28;20256;-77
2023/03/08 08:13:30;;;;;;;16.37;8.73;;;14.00;72.60;;;;;;4960154;28;20333;-77
2023/03/08 08:15:59;;;;;;;19.47;8.77;;;14.10;72.50;;;;;;4969725;28;20718;-76
2023/03/08 08:18:28;;;;;;;18.87;8.77;;;14.20;71.90;;;;;;4963035;28;20225;-77
2023/03/08 08:21:04;;;;;;;14.97;7.60;;;14.30;71.60;;;;;;4958446;28;21278;-75
2023/03/08 08:23:32;;;;;;;16.07;7.77;;;14.40;71.00;;;;;;4961245;28;20213;-78
2023/03/08 08:26:06;;;;;;;14.77;8.03;;;14.60;70.60;;;;;;4951694;28;20258;-76
2023/03/08 08:28:35;;;;;;;16.57;7.93;;;14.70;70.00;;;;;;4948235;28;20643;-76
2023/03/08 08:31:06;;;;;;;15.07;8.13;;;14.80;69.80;;;;;;4951027;28;20666;-75
2023/03/08 08:33:34;;;;;;;16.17;8.27;;;14.90;69.70;;;;;;4951137;28;20198;-75
2023/03/08 08:36:05;;;;;;;17.27;8.77;;;15.00;68.30;;;;;;4950816;28;20315;-78
2023/03/08 08:38:33;;;;;;;18.00;8.20;;;15.10;68.50;;;;;;4952640;28;20205;-77
2023/03/08 08:41:06;;;;;;;16.83;8.57;;;15.20;68.10;;;;;;4952481;28;20198;-78
2023/03/08 08:43:36;;;;;;;14.47;7.73;;;15.40;68.60;;;;;;4953513;28;20249;-77
2023/03/08 08:46:05;;;;;;;14.83;7.70;;;15.50;68.00;;;;;;4950945;28;20202;-76
2023/03/08 08:48:35;;;;;;;15.03;8.00;;;15.70;67.00;;;;;;4951577;28;20209;-77
2023/03/08 08:51:05;;;;;;;13.33;7.33;;;15.70;66.00;;;;;;4951254;28;20205;-77
2023/03/08 08:53:35;;;;;;;15.70;8.03;;;15.80;64.50;;;;;;4953059;28;20198;-76
2023/03/08 09:00:42;;;;;;;14.80;7.70;;;16.10;64.30;;;;;;4960745;28;20344;-78
2023/03/08 09:03:11;;;;;;;13.07;7.07;;;16.20;63.60;;;;;;4953868;28;20288;-76
2023/03/08 09:06:01;;;;;;;14.83;6.73;;;16.30;63.00;;;;;;4954425;28;20252;-76
2023/03/08 09:08:46;;;;;;;14.00;6.63;;;16.30;62.30;;;;;;4955879;28;20286;-76
2023/03/08 09:15:15;;;;;;;10.90;6.30;;;16.50;61.30;;;;;;4948508;28;20217;-80
2023/03/08 09:17:49;;;;;;;12.17;6.23;;;16.60;60.60;;;;;;4955236;28;20352;-80
2023/03/08 09:20:18;;;;;;;12.07;5.93;;;16.70;61.10;;;;;;4954445;28;20686;-77
2023/03/08 09:26:17;;;;;;;14.17;5.97;;;16.80;59.90;;;;;;4961570;28;20202;-78
2023/03/08 09:28:46;;;;;;;10.73;6.03;;;16.80;59.80;;;;;;4956061;28;20228;-76
2023/03/08 09:31:16;;;;;;;11.00;5.30;;;16.90;60.20;;;;;;4958658;28;20875;-77
2023/03/08 09:33:48;;;;;;;8.87;5.37;;;16.90;59.30;;;;;;4952846;28;20202;-76
2023/03/08 09:36:40;;;;;;;12.40;5.33;;;17.00;59.10;;;;;;4952070;28;20229;-76
2023/03/08 09:39:12;;;;;;;12.77;6.43;;;17.00;59.20;;;;;;4948264;28;20269;-77
2023/03/08 09:41:54;;;;;;;12.10;5.80;;;17.20;59.40;;;;;;4947381;28;20221;-78
2023/03/08 09:44:47;;;;;;;13.67;6.13;;;17.20;59.40;;;;;;4951800;28;20206;-76
2023/03/08 09:47:28;;;;;;;11.50;6.50;;;17.20;58.30;;;;;;4951780;28;20194;-76
2023/03/08 09:50:04;;;;;;;10.87;6.17;;;17.20;58.40;;;;;;4958197;28;20252;-75
2023/03/08 09:52:37;;;;;;;14.63;6.60;;;17.30;58.20;;;;;;4950223;28;21468;-75
2023/03/08 09:55:14;;;;;;;14.00;6.43;;;17.30;58.40;;;;;;4958975;28;20269;-76
2023/03/08 09:57:51;;;;;;;12.47;6.63;;;17.30;58.50;;;;;;4960173;28;20215;-76
2023/03/08 10:00:26;;;;;;;11.97;5.77;;;17.40;58.50;;;;;;4959654;28;20303;-77
2023/03/08 10:03:14;;;;;;;11.33;5.90;;;17.40;58.00;;;;;;4966691;28;20204;-77
2023/03/08 10:05:52;;;;;;;12.83;6.03;;;17.50;58.00;;;;;;4957960;28;20194;-76
2023/03/08 10:08:26;;;;;;;10.47;5.47;;;17.60;57.30;;;;;;4953768;28;20201;-78
2023/03/08 10:10:59;;;;;;;9.77;5.27;;;17.60;57.10;;;;;;4957428;28;20242;-76
2023/03/08 10:13:39;;;;;;;10.67;5.23;;;17.60;57.00;;;;;;4956642;28;20202;-76
2023/03/08 10:33:43;;;;;;;6.97;3.50;;;17.80;54.70;;;;;;5924443;22;12113380;-76
2023/03/08 10:45:33;;;;;;;9.87;2.80;;;17.90;52.60;;;;;;6183208;23;20210;-77
2023/03/08 10:48:21;;;;;;;7.60;3.40;;;17.90;52.60;;;;;;6177706;23;20494;-77
2023/03/08 10:50:59;;;;;;;6.30;2.90;;;17.90;52.40;;;;;;6183331;23;20182;-76
2023/03/08 10:53:28;;;;;;;7.03;2.47;;;17.90;53.10;;;;;;6180579;23;20179;-77
2023/03/08 10:55:59;;;;;;;7.20;2.30;;;17.90;52.70;;;;;;6177726;23;20688;-77
2023/03/08 10:58:34;;;;;;;5.13;2.30;;;17.90;52.60;;;;;;6183951;23;20163;-75
2023/03/08 11:01:05;;;;;;;7.73;2.93;;;18.00;52.50;;;;;;6180723;23;20174;-76
2023/03/08 11:03:33;;;;;;;7.43;2.23;;;18.00;52.80;;;;;;6179067;23;20191;-77
2023/03/08 11:06:10;;;;;;;5.97;2.23;;;18.10;52.90;;;;;;6188321;23;20175;-77
2023/03/08 11:08:41;;;;;;;3.83;1.87;;;18.10;52.60;;;;;;6180170;23;20652;-77
2023/03/08 11:11:11;;;;;;;5.27;1.93;;;18.10;53.00;;;;;;6181786;23;20180;-76
2023/03/08 11:13:41;;;;;;;8.40;2.10;;;18.20;51.20;;;;;;6180642;23;20721;-76
2023/03/08 11:16:47;;;;;;;7.73;2.33;;;18.20;52.00;;;;;;6184703;23;20167;-78
2023/03/08 11:19:39;;;;;;;5.40;2.27;;;18.30;51.70;;;;;;6150568;23;20202;-79
2023/03/08 11:22:23;;;;;;;5.30;2.27;;;18.30;52.10;;;;;;6178373;23;20234;-76
2023/03/08 11:25:15;;;;;;;4.63;1.87;;;18.40;52.00;;;;;;6183527;23;20169;-76
2023/03/08 11:27:55;;;;;;;4.37;1.87;;;18.50;51.30;;;;;;6175296;23;20176;-75
2023/03/08 11:30:35;;;;;;;5.10;1.87;;;18.60;51.80;;;;;;6188942;23;20190;-78
2023/03/08 11:33:29;;;;;;;9.63;2.10;;;18.70;51.70;;;;;;6172080;23;20514;-76
2023/03/08 11:36:05;;;;;;;7.53;1.97;;;18.80;50.70;;;;;;6169935;23;20164;-76
2023/03/08 11:38:36;;;;;;;7.67;1.80;;;18.80;49.90;;;;;;6174948;23;20162;-76
2023/03/08 11:41:16;;;;;;;4.83;2.13;;;18.80;48.40;;;;;;6171371;23;20226;-78
2023/03/08 11:48:07;;;;;;;3.73;1.80;;;18.90;47.90;;;;;;6025993;23;20730;-78
2023/03/08 11:50:43;;;;;;;4.90;1.70;;;18.80;48.80;;;;;;6066607;23;20565;-78
2023/03/08 11:53:19;;;;;;;3.97;1.43;;;18.80;49.10;;;;;;6175006;23;21220;-76
2023/03/08 11:56:04;;;;;;;9.13;1.67;;;18.90;48.40;;;;;;6172406;23;20170;-76
2023/03/08 11:58:39;;;;;;;9.93;2.20;;;19.00;46.10;;;;;;6171165;23;20491;-77
2023/03/08 12:01:13;;;;;;;5.00;1.30;;;19.00;46.00;;;;;;6169627;23;20191;-77
2023/03/08 12:03:46;;;;;;;4.53;1.63;;;19.10;45.40;;;;;;6173492;23;20156;-78
2023/03/08 12:06:23;;;;;;;4.93;1.60;;;19.10;45.20;;;;;;6172532;23;20160;-76
2023/03/08 12:09:01;;;;;;;6.23;1.70;;;19.20;45.80;;;;;;6175973;23;20164;-76
2023/03/08 12:11:35;;;;;;;12.60;1.67;;;19.30;46.00;;;;;;6174007;23;20199;-76
2023/03/08 12:14:16;;;;;;;6.43;1.53;;;19.30;45.00;;;;;;6171757;23;20163;-76
2023/03/08 12:16:49;;;;;;;4.73;1.30;;;19.40;44.00;;;;;;6173030;23;20355;-77
2023/03/08 12:19:29;;;;;;;5.77;1.30;;;19.40;44.20;;;;;;6173821;23;20314;-78
2023/03/08 12:22:50;;;;;;;4.60;1.50;;;19.50;44.10;;;;;;6173073;23;20162;-79
2023/03/08 12:25:29;;;;;;;10.03;2.23;;;19.50;44.50;;;;;;6173849;23;20214;-77
2023/03/08 12:28:05;;;;;;;8.70;1.40;;;19.60;44.50;;;;;;6174351;23;20422;-77
2023/03/08 12:30:44;;;;;;;4.07;1.50;;;19.70;44.70;;;;;;6173129;23;20151;-77
2023/03/08 12:33:15;;;;;;;7.57;1.47;;;19.80;45.10;;;;;;6170903;23;20160;-75
2023/03/08 12:35:52;;;;;;;4.43;1.20;;;19.90;43.70;;;;;;6170875;23;20238;-75
2023/03/08 12:38:36;;;;;;;4.70;1.17;;;19.90;43.00;;;;;;6174179;23;20159;-74
2023/03/08 12:41:06;;;;;;;3.90;1.75;;;20.00;43.20;;;;;;6171726;23;20482;-76
2023/03/08 12:43:37;;;;;;;6.57;1.40;;;20.10;42.30;;;;;;6172117;23;20246;-76
2023/03/08 12:46:07;;;;;;;8.57;1.70;;;20.10;43.30;;;;;;6168384;23;20625;-76
2023/03/08 12:48:39;;;;;;;8.23;1.80;;;20.30;42.80;;;;;;6168355;23;20172;-78
2023/03/08 12:51:20;;;;;;;5.95;1.95;;;20.30;42.30;;;;;;6172779;23;20156;-76
2023/03/08 12:54:00;;;;;;;4.28;1.30;;;20.40;42.40;;;;;;6169596;23;20170;-77
2023/03/08 12:56:32;;;;;;;3.75;1.30;;;20.50;42.60;;;;;;6169534;23;20163;-77
2023/03/08 12:59:23;;;;;;;6.00;1.50;;;20.60;43.10;;;;;;6169189;23;20182;-79
2023/03/08 13:02:01;;;;;;;3.38;1.40;;;20.80;42.60;;;;;;6169484;23;20538;-77
2023/03/08 13:04:32;;;;;;;3.45;1.27;;;20.90;40.60;;;;;;6169899;23;20164;-77
2023/03/08 13:07:22;;;;;;;4.38;1.27;;;21.00;41.20;;;;;;6169009;23;20163;-77
2023/03/08 13:09:59;;;;;;;4.65;1.30;;;21.20;40.80;;;;;;6171643;23;20156;-79
2023/03/08 13:12:36;;;;;;;5.03;1.60;;;21.30;41.20;;;;;;6171059;23;20243;-77
2023/03/08 13:15:26;;;;;;;8.98;2.00;;;21.40;40.50;;;;;;6172423;23;20242;-83
2023/03/08 13:18:13;;;;;;;3.63;1.58;;;21.60;40.20;;;;;;6169284;23;20231;-79
2023/03/08 13:21:02;;;;;;;6.30;1.60;;;21.60;39.20;;;;;;6171425;23;20188;-81
2023/03/08 13:23:36;;;;;;;6.57;3.42;;;21.80;39.70;;;;;;6173143;23;20163;-79
2023/03/08 13:26:35;;;;;;;8.48;1.50;;;21.90;40.20;;;;;;6171056;23;20226;-81
2023/03/08 13:29:19;;;;;;;6.38;1.67;;;22.00;39.40;;;;;;6172762;23;20195;-79
2023/03/08 13:31:50;;;;;;;3.97;1.45;;;22.20;39.50;;;;;;6171728;23;20156;-79
2023/03/08 13:34:27;;;;;;;6.90;1.60;;;22.60;39.70;;;;;;6169004;23;20250;-80
2023/03/08 13:36:56;;;;;;;10.18;1.55;;;22.90;38.10;;;;;;6166817;23;20164;-81
2023/03/08 13:39:26;;;;;;;8.60;1.58;;;23.30;38.50;;;;;;6174780;23;20168;-78
2023/03/08 13:42:06;;;;;;;13.50;1.95;;;23.80;37.10;;;;;;6170141;23;20187;-78